NY/NJ Local METAR Reports

No Warnings, Watches, or Advisories
KNYC - NYC/Central Park, NY, USA
Distance from station: NE 4mi, 7km
Updated: 04/12/2021 7:51pm
Rain, Mist, Overcast
Rain, Mist, Overcast
 Wind from calm
Wind: Calm
Temperature: 48°F , 9°C
Dew Point: 46°F , 8°C
Humidity: 94%
Barometer: 29.91 inHg , 1012.9 hPa
Summary: Rain, Mist
Clouds: Overcast
Visibility: 3 miles , 5 km
Cloud details: Overcast 900 ft
2021/04/12 23:51 KNYC 122351Z AUTO 00000KT 3SM RA BR OVC009 09/08 A2991 RMK AO2 SLP119 P0009 60022 T00890078 10106 20083 53022
KEWR - Newark, NJ, USA
Distance from station: WSW 8mi, 13km
Updated: 04/12/2021 7:51pm
Light rain, Overcast
Light rain, Overcast
 Wind from N
Wind: N 6 mph , 9 km/h
Temperature: 48°F , 9°C
Wind Chill: 45°F , 7°C
Dew Point: 45°F , 7°C
Humidity: 87%
Barometer: 29.88 inHg , 1011.9 hPa
Summary: Light rain
Clouds: Overcast
Visibility: 10 miles , 16 km
Cloud details: Mostly cloudy 900 ft
Overcast 1600 ft
2021/04/12 23:51 KEWR 122351Z 35005KT 10SM -RA BKN009 OVC016 09/07 A2988 RMK AO2 SLP118 P0000 60010 T00890072 10100 20083 53019
 
KLGA - NYC/La Guardia, NY, USA
Distance from station: ENE 8mi, 13km
Updated: 04/12/2021 8:33pm
Light rain, Mist, Overcast
Light rain, Mist, Overcast
 Wind from ENE
Wind: ENE 6 mph , 9 km/h
Temperature: 48°F , 9°C
Wind Chill: 45°F , 7°C
Dew Point: 45°F , 7°C
Humidity: 87%
Barometer: 29.90 inHg , 1012.5 hPa
Summary: Light rain, Mist
Clouds: Overcast
Visibility: 6 miles , 10 km
Cloud details: Partly cloudy 900 ft
Mostly cloudy 2500 ft
Overcast 3000 ft
2021/04/13 00:33 KLGA 130033Z 06005KT 6SM -RA BR SCT009 BKN025 OVC030 09/07 A2990 RMK AO2 P0005 T00890067
KTEB - Teterboro, NJ, USA
Distance from station: N 9mi, 14km
Updated: 04/12/2021 8:20pm
Light rain, Mist, Overcast
Light rain, Mist, Overcast
 Wind from calm
Wind: Calm
Temperature: 46°F , 8°C
Dew Point: 43°F , 6°C
Humidity: 87%
Barometer: 29.89 inHg , 1012.2 hPa
Summary: Light rain, Mist
Clouds: Overcast
Visibility: 3 miles , 5 km
Cloud details: Few Clouds 3000 ft
Overcast 4400 ft
2021/04/13 00:20 KTEB 130020Z 00000KT 3SM -RA BR FEW030 OVC044 08/06 A2989 RMK AO2 P0005 T00780061
 
KJFK - NYC/Jfk Arpt, NY, USA
Distance from station: ESE 16mi, 25km
Updated: 04/12/2021 7:51pm
Light rain, Mist, Overcast
Light rain, Mist, Overcast
 Wind from ESE
Wind: ESE 9 mph , 15 km/h
Temperature: 46°F , 8°C
Wind Chill: 41°F , 5°C
Dew Point: 43°F , 6°C
Humidity: 87%
Barometer: 29.90 inHg , 1012.5 hPa
Summary: Light rain, Mist
Clouds: Overcast
Visibility: 6 miles , 10 km
Cloud details: Mostly cloudy 700 ft
Overcast 1700 ft
2021/04/12 23:51 KJFK 122351Z 12008KT 6SM -RA BR BKN007 OVC017 08/06 A2990 RMK AO2 CIG 005V011 SLP124 P0008 60033 T00780061 10111 20078 53024
KCDW - Caldwell, NJ, USA
Distance from station: NW 16mi, 26km
Updated: 04/12/2021 8:32pm
Light rain, Mist, Overcast
Light rain, Mist, Overcast
 Wind from calm
Wind: Calm
Temperature: 48°F , 9°C
Dew Point: 45°F , 7°C
Humidity: 87%
Barometer: 29.90 inHg , 1012.5 hPa
Summary: Light rain, Mist
Clouds: Overcast
Visibility: 5 miles , 8 km
Cloud details: Few Clouds 1500 ft
Partly cloudy 4000 ft
Overcast 4900 ft
2021/04/13 00:32 KCDW 130032Z 00000KT 5SM -RA BR FEW015 SCT040 OVC049 09/07 A2990 RMK AO2 P0004 T00890072
 
KMMU - Morristown Muni, NJ, USA
Distance from station: W 20mi, 33km
Updated: 04/12/2021 8:45pm
Mist, Overcast
Mist, Overcast
 Wind from calm
Wind: Calm
Temperature: 50°F , 10°C
Barometer: 29.91 inHg , 1012.9 hPa
Summary: Mist
Clouds: Overcast
Visibility: 3 miles , 5 km
Cloud details: Overcast 1500 ft
2021/04/13 00:45 KMMU 130045Z 00000KT 3SM BR OVC015 10/ A2991
KHPN - White Plains, NY, USA
Distance from station: NE 28mi, 46km
Updated: 04/12/2021 7:56pm
Light rain, Mist, Overcast
Light rain, Mist, Overcast
 Wind from SE
Wind: SE 7 mph , 11 km/h
Temperature: 45°F , 7°C
Wind Chill: 41°F , 5°C
Dew Point: 43°F , 6°C
Humidity: 93%
Barometer: 29.88 inHg , 1011.9 hPa
Summary: Light rain, Mist
Clouds: Overcast
Visibility: 1 1/2 miles , 2.4 km
Cloud details: Overcast 300 ft
2021/04/12 23:56 KHPN 122356Z 13006KT 1 1/2SM R16/5500VP6000FT -RA BR VV003 07/06 A2988 RMK AO2 RAB11DZB38E53 SLP122 P0007 60007 T00720061 10111 20072 53024 $
 
KFRG - Farmingdale, NY, USA
Distance from station: E 32mi, 52km
Updated: 04/12/2021 7:53pm
Rain, Mist, Overcast
Rain, Mist, Overcast
 Wind from E
Wind: E 5 mph , 7 km/h
Temperature: 46°F , 8°C
Wind Chill: 44°F , 7°C
Dew Point: 45°F , 7°C
Humidity: 93%
Barometer: 29.89 inHg , 1012.2 hPa
Summary: Rain, Mist
Clouds: Overcast
Visibility: 6 miles , 10 km
Cloud details: Mostly cloudy 900 ft
Overcast 1400 ft
2021/04/12 23:53 KFRG 122353Z 08004KT 6SM RA BR BKN009 OVC014 08/07 A2989 RMK AO2 SLP120 P0008 60011 T00830072 10122 20083 53027
KSMQ - Somerville, NJ, USA
Distance from station: WSW 34mi, 55km
Updated: 04/12/2021 8:06pm
Overcast
Overcast
 Wind from calm
Wind: Calm
Temperature: 48°F , 9°C
Dew Point: 43°F , 6°C
Humidity: 82%
Barometer: 29.88 inHg , 1011.9 hPa
Clouds: Overcast
Visibility: 10 miles , 16 km
Cloud details: Mostly cloudy 2800 ft
Mostly cloudy 3500 ft
Overcast 4900 ft
2021/04/13 00:06 KSMQ 130006Z AUTO 00000KT 10SM BKN028 BKN035 OVC049 09/06 A2988 RMK AO2 T00940061
 
KBLM - Belmar/Farmdale, NJ, USA
Distance from station: S 40mi, 64km
Updated: 04/12/2021 7:56pm
Light rain, Mist, Overcast
Light rain, Mist, Overcast
 Wind from ENE
Wind: ENE 7 mph , 11 km/h
Temperature: 45°F , 7°C
Wind Chill: 41°F , 5°C
Dew Point: 45°F , 7°C
Humidity: 100%
Barometer: 29.89 inHg , 1012.2 hPa
Summary: Light rain, Mist
Clouds: Overcast
Visibility: 4 miles , 6 km
Cloud details: Mostly cloudy 600 ft
Overcast 900 ft
2021/04/12 23:56 KBLM 122356Z AUTO 06006KT 4SM -RA BR BKN006 OVC009 07/07 A2989 RMK AO2 CIG 003V007 SLP123 6//// T00720072 10089 20072 51023 PNO $
K12N - Andover, NJ, USA
Distance from station: WNW 41mi, 67km
Updated: 04/12/2021 7:54pm

 Wind from NE
Wind: NE 3 mph , 6 km/h
Temperature: 46°F , 8°C
Dew Point: 45°F , 7°C
Humidity: 93%
Barometer: 29.88 inHg , 1011.9 hPa
2021/04/12 23:54 K12N 122354Z AUTO 04003KT 08/07 A2988 RMK AO1 SLP123 P0001 60001 T00780067 10094 20078 51021
 
KFWN - Sussex, NJ, USA
Distance from station: NW 45mi, 72km
Updated: 04/12/2021 8:27pm
Light rain, Overcast
Light rain, Overcast
 Wind from calm
Wind: Calm
Temperature: 46°F , 8°C
Dew Point: 45°F , 7°C
Humidity: 93%
Barometer: 29.90 inHg , 1012.5 hPa
Summary: Light rain
Clouds: Overcast
Visibility: 8 miles , 13 km
Cloud details: Few Clouds 300 ft
Overcast 1700 ft
2021/04/13 00:27 KFWN 130027Z AUTO 00000KT 8SM -RA FEW003 OVC017 08/07 A2990 RMK AO2 RAB2359 P0000 T00830072
KISP - Islip, NY, USA
Distance from station: E 49mi, 79km
Updated: 04/12/2021 7:56pm
Mist, Overcast
Mist, Overcast
 Wind from ENE
Wind: ENE 7 mph , 11 km/h
Temperature: 46°F , 8°C
Wind Chill: 42°F , 6°C
Dew Point: 45°F , 7°C
Humidity: 93%
Barometer: 29.88 inHg , 1011.9 hPa
Summary: Mist
Clouds: Overcast
Visibility: 5 miles , 8 km
Cloud details: Mostly cloudy 2000 ft
Overcast 2900 ft
2021/04/12 23:56 KISP 122356Z 07006KT 5SM BR BKN020 OVC029 08/07 A2988 RMK AO2 RAE30 SLP119 P0001 60001 T00830067 10122 20083 53027